Metar z połowy godziny Komunikat METAR ze strony awiacja.imgw.pl Metar G30 EPLB METAR EPLB 190130Z 29005KT CAVOK 18/16 Q1017 =